Relevés horaires Antwerpen / Deurne (Belgique)


Relevés horaires à Antwerpen / Deurne - Jeudi 02 Mars 2023
Heure UTC1 Température [°C] Vent [km/h] Hum. [%] Pres.4 [hPa] Visi. [Km] Nébu. [octa] Préc.5 [mm] Cond.
2m. Res. Ros. Dir.2 Vit. Moy. Raf.3
23:00 2.4 0.9 -0.6 NNE 5.6 5.6 9.3 81 1024.3(0.5/3h) 14 -- -- --
22:00 2.7 1.2 -0.4 NNE 5.6 5.6 7.4 80 1024.3(0.9/3h) 20 0/8 -- --
21:00 3.4 2 0.4 N 5.6 7.4 14.8 81 1024.1(1.4/3h) 20 0/8 -- --
20:00 4.2 2.9 1.2 N 5.6 7.4 14.8 81 1023.7(1.8/3h) 20 1/8 -- --
19:00 5.1 4 1.0 N 5.6 7.4 11.1 75 1023.4(1.8/3h) 20 1/8 -- --
18:00 7.2 6.4 -3.1 N 5.6 11.1 14.8 48 1022.7(1.0/3h) 20 1/8 0/12h
--
17:00 8.3 6.7 -4.0 NNE 9.3 9.3 14.8 41 1021.9(-0.4/3h) 20 1/8 -- --
16:00 8.8 7.3 -3.0 NNE 9.3 11.1 14.8 43 1021.5(-1.1/3h) 20 0/8 -- --
15:00 8.8 7.7 -2.1 NNE 7.4 9.3 13.0 46 1021.6(-1.4/3h) 20 0/8 -- --
14:00 8.8 7.7 -2.3 N 7.4 9.3 13.0 46 1022.2(-1.0/3h) 20 0/8 -- --
13:00 7.8 6.6 -2.6 NNE 7.4 7.4 11.1 48 1022.6(-0.9/3h) 20 0/8 -- --
12:00 6.1 4.6 -2.9 N 7.4 7.4 11.1 52 1023.1(-0.9/3h) 10 0/8 0/6h
--
11:00 4.9 3.2 -2.7 NE 7.4 7.4 11.1 58 1023.3(-0.5/3h) 10 0/8 -- --
10:00 3.2 1.8 -2.9 NNE 5.6 7.4 11.1 64 1023.5(-0.2/3h) 10 0/8 -- --
09:00 1.1 -1.3 -2.4 NNE 7.4 7.4 11.1 77 1024(0.4/3h) 9 0/8 -- --
08:00 -0.1 -2 -2.7 N 5.6 5.6 7.4 83 1023.9(0.5/3h) 8 0/8 -- --
07:00 -1.1 -1.1 -3.2 N 3.7 5.6 7.4 86 1023.7(0.3/3h) 8 0/8 -- --
06:00 -1.3 -1.3 -3.4 N 3.7 7.4 9.3 86 1023.6(0.3/3h) 9 0/8 0/12h
--
05:00 -0.8 -2.8 -4.2 NNE 5.6 5.6 9.3 78 1023.4(-0.4/3h) 26 -- -- --
04:00 -0.8 -0.8 -5.2 NNE 3.7 3.7 7.4 72 1023.5(-0.8/3h) 45 -- -- --
03:00 -0.6 -0.6 -5.2 NNE 3.7 3.7 5.6 71 1023.3(-1.1/3h) 45 -- -- --
02:00 -0.5 -0.5 -5.4 N 3.7 3.7 5.6 69 1023.8(-0.6/3h) 45 -- -- --
01:00 0.0 0.0 -5.3 N 3.7 3.7 5.6 67 1024.3(0.0/3h) 45 -- -- --
00:00 0.8 0.8 -5.2 N 3.7 7.4 9.3 64 1024.4(-0.2/3h) 45 -- 0/6h
0/24h
--

1 Coordinated Universal Time. Actuellement il est 07:00 locale et 05:00 UTC.

2 Le vent souffle depuis la direction indiquée vers la direction oposée.

3 Les rafales max. sont disponible 40 min après l'heure du relevé.

4 Pour les stations d'altitude (plus de 600m) le géopotentiel du niveau le plus proche de la pression obligatoire est indiqué.

5 Les stations disposant d'un diffuseur peuvent indiquer "trace". Cela signifie que des précipitations ont touchés le sol mais que la quantité est inférieure à 0.1 mm.

Récapitulatif de la journée
Température [°C] Vent [km/h] Ensoleillement4 [h] Precipitations totale5 [mm] Pression [Hpa]
Min1 Max.2 Moy.3 Max. Min Max.
-1.3 9.3 7 14.8 0 h 0 min 0 1021.5 1024.4

1 Température minimale relevée entre 18:00 UTC la veille et 18:00 UTC le jour donné.

2 Température maximale relevée entre 06:00 UTC le jour donné et 06:00 UTC le lendemain.

3 Vent moyen de la journée basé sur les relevés horaires.

4 Ensoleillement en heures relevé entre 06:00 UTC la veille et 06:00 UTC le jour donné.

5 Précipitations totales tombées entre 06:00 UTC la jour donné et 06:00 UTC le lendemain.

Graphiques horaires